Brownsville, TX

2:47 AM CDT en Septiembre 19, 2014 (GMT -0500)
Brownsville-South Padre I International | Change Station
CLOSE
Current Station
Aeropuerto
Location: Brownsville,
Altura: 20 ft
Estaciones meteorológicas cercanas

Alt 20 ft 25.91 °N, 97.42 °W | Updated 54 minutes ago

Despejado
Despejado
79 ° F
Sensación térmica 79 ° F
N
5
Viento Variable Viento desde SSE

Hoy
Alta -- | Baja -- ° F
--% Posibilidad de precipitaciones
Ayer
Alta -- | Baja -- ° F
Precip. -- pul
7:17 AM 7:29 PM
Creciente menguante, 21% visible
Presión 29.84 pul
Visibilidad 6.0 Millas
Nubes Despejado
Punto de rocío 78 ° F
Humedad 97%
Precipitaciones 0.00 pul
Espesor de la nieve No disponible.
UV 0 de una escala de 12
Polen 10.30 de una escala de 12
Ozono Buena
PM2.5 Moderada
Flu Activity No disponible.
METAR KBRO 190653Z 15004KT 6SM BR CLR 26/26 A2984 RMK AO2 SLP104 T02610256

More Conditions Fewer Conditions

Presión 29.84 pul
Visibilidad 6.0 Millas
Nubes Despejado
Punto de rocío 78 ° F
Humedad 97%
Precipitaciones 0.00 pul
Espesor de la nieve No disponible.
UV 0 de una escala de 12
Polen 10.30 de una escala de 12
Ozono Buena
PM2.5 Moderada
Flu Activity No disponible.
METAR KBRO 190653Z 15004KT 6SM BR CLR 26/26 A2984 RMK AO2 SLP104 T02610256

More Conditions Fewer Conditions

10-Day Weather Forecast

Almanac

Astronomía

Sep. 19, 2014 Salida Puesta
Hora real 7:17 AM CDT 7:29 PM CDT
Crepúsculo civil 6:54 AM CDT 7:52 PM CDT
Crepúsculo náutico 6:27 AM CDT 8:19 PM CDT
Crepúsculo astronómico 6:00 AM CDT 8:46 PM CDT
Luna 3:23 AM CDT 4:42 PM CDT
Horas de luz 12h 58m
Horas de luz
12h 12m
Tomorrow will be 1m 30s shorter.
Creciente menguante, 21% of the Moon is Illuminated
Hoy
Creciente menguante
Sep 24
Nueva
Oct 1
Cuarto creciente
Oct 8
Luna llena
Oct 15
Cuarto menguante

Extremos de hoy

Máximos del estado Bajos del estado

Community

WunderPhotos

Upload Photos

1,754,578 ¡fotos cargadas!

Nearby

Calidad del aire

  Calidad del aire Índice AQ Contaminante
Ayer Buena
PM2.5
Ayer Buena
OZONE
Real Moderada
PM2.5
Real Buena
OZONE
Viernes Buena
PM10
Viernes Buena
OZONE
Sábado Buena
PM10
Sábado Buena
OZONE
Domingo Buena
PM10
Domingo Buena
OZONE

Grosos de nieve

Estación Profundido Altura
No tenemos constancia de nieve nueva.

Actividad de terremotos

Ciudad Distance Mag. Tiempo y dato
No hay informes recientes de la actividad sísmica.
Magnitud mínima muestra es 2,5.

Temperaturas de aguas costeras

Lugar Temperatura
Port Isabel, TX 84.0 ° F
Baffin Bay Point of Rocks, TX 82.9 ° F
South Bird Island, TX 84.9 ° F
Malaquite Beach (Corpus Christi), TX 84.9 ° F
Packery Channel, TX 84.9 ° F

Estaciones meteorológicas cercanas